sensor_id;sensor_type;location;lat;lon;timestamp;P1;durP1;ratioP1;P2;durP2;ratioP2
23555;SDS011;11956;53.184;8.578;2023-02-14T00:00:28;60.83;;;28.20;;
23555;SDS011;11956;53.184;8.578;2023-02-14T00:03:29;88.07;;;35.05;;
23555;SDS011;11956;53.184;8.578;2023-02-14T00:06:30;44.40;;;22.60;;
23555;SDS011;11956;53.184;8.578;2023-02-14T00:09:34;46.10;;;22.98;;
23555;SDS011;11956;53.184;8.578;2023-02-14T00:12:35;47.03;;;22.73;;
23555;SDS011;11956;53.184;8.578;2023-02-14T00:15:36;48.05;;;23.35;;
23555;SDS011;11956;53.184;8.578;2023-02-14T00:18:37;52.35;;;25.20;;
23555;SDS011;11956;53.184;8.578;2023-02-14T00:21:56;47.60;;;22.38;;
23555;SDS011;11956;53.184;8.578;2023-02-14T00:24:57;58.35;;;26.27;;
23555;SDS011;11956;53.184;8.578;2023-02-14T00:27:58;75.72;;;31.63;;
23555;SDS011;11956;53.184;8.578;2023-02-14T00:31:00;56.25;;;26.48;;
23555;SDS011;11956;53.184;8.578;2023-02-14T00:34:02;72.18;;;31.27;;
23555;SDS011;11956;53.184;8.578;2023-02-14T00:40:41;68.15;;;29.35;;
23555;SDS011;11956;53.184;8.578;2023-02-14T00:43:42;98.75;;;39.38;;
23555;SDS011;11956;53.184;8.578;2023-02-14T00:46:50;109.40;;;41.03;;
23555;SDS011;11956;53.184;8.578;2023-02-14T00:49:51;72.13;;;31.15;;
23555;SDS011;11956;53.184;8.578;2023-02-14T00:52:52;94.93;;;39.05;;
23555;SDS011;11956;53.184;8.578;2023-02-14T00:55:53;67.55;;;29.42;;
23555;SDS011;11956;53.184;8.578;2023-02-14T00:58:53;108.70;;;41.35;;
23555;SDS011;11956;53.184;8.578;2023-02-14T01:01:54;99.28;;;39.08;;
23555;SDS011;11956;53.184;8.578;2023-02-14T01:04:55;83.25;;;35.40;;
23555;SDS011;11956;53.184;8.578;2023-02-14T01:07:56;72.55;;;32.22;;
23555;SDS011;11956;53.184;8.578;2023-02-14T01:10:57;99.95;;;42.17;;
23555;SDS011;11956;53.184;8.578;2023-02-14T01:14:05;89.20;;;35.65;;
23555;SDS011;11956;53.184;8.578;2023-02-14T01:20:35;68.40;;;30.58;;
23555;SDS011;11956;53.184;8.578;2023-02-14T01:50:14;64.47;;;26.45;;
23555;SDS011;11956;53.184;8.578;2023-02-14T01:53:25;69.53;;;28.05;;
23555;SDS011;11956;53.184;8.578;2023-02-14T01:56:33;61.67;;;26.90;;
23555;SDS011;11956;53.184;8.578;2023-02-14T01:59:47;72.25;;;28.67;;
23555;SDS011;11956;53.184;8.578;2023-02-14T02:02:54;54.75;;;25.00;;
23555;SDS011;11956;53.184;8.578;2023-02-14T02:06:08;66.22;;;26.92;;
23555;SDS011;11956;53.184;8.578;2023-02-14T02:09:23;53.63;;;25.83;;
23555;SDS011;11956;53.184;8.578;2023-02-14T02:12:32;61.42;;;26.52;;
23555;SDS011;11956;53.184;8.578;2023-02-14T02:15:38;58.25;;;25.40;;
23555;SDS011;11956;53.184;8.578;2023-02-14T02:18:59;65.03;;;27.85;;
23555;SDS011;11956;53.184;8.578;2023-02-14T02:22:44;67.75;;;26.63;;
23555;SDS011;11956;53.184;8.578;2023-02-14T02:40:30;58.60;;;26.33;;
23555;SDS011;11956;53.184;8.578;2023-02-14T02:47:31;65.55;;;26.52;;
23555;SDS011;11956;53.184;8.578;2023-02-14T02:50:48;55.70;;;25.63;;
23555;SDS011;11956;53.184;8.578;2023-02-14T02:54:36;59.35;;;26.15;;
23555;SDS011;11956;53.184;8.578;2023-02-14T02:57:41;57.85;;;25.77;;
23555;SDS011;11956;53.184;8.578;2023-02-14T03:00:46;62.42;;;26.70;;
23555;SDS011;11956;53.184;8.578;2023-02-14T03:04:00;63.55;;;26.88;;
23555;SDS011;11956;53.184;8.578;2023-02-14T03:07:30;67.40;;;27.25;;
23555;SDS011;11956;53.184;8.578;2023-02-14T03:10:38;56.38;;;25.13;;
23555;SDS011;11956;53.184;8.578;2023-02-14T03:14:02;64.70;;;26.10;;
23555;SDS011;11956;53.184;8.578;2023-02-14T03:17:35;65.80;;;26.13;;
23555;SDS011;11956;53.184;8.578;2023-02-14T03:23:57;65.47;;;26.63;;
23555;SDS011;11956;53.184;8.578;2023-02-14T03:27:27;59.80;;;24.25;;
23555;SDS011;11956;53.184;8.578;2023-02-14T03:37:48;65.63;;;26.33;;
23555;SDS011;11956;53.184;8.578;2023-02-14T03:41:04;68.43;;;26.95;;
23555;SDS011;11956;53.184;8.578;2023-02-14T03:44:15;64.63;;;26.42;;
23555;SDS011;11956;53.184;8.578;2023-02-14T03:47:22;60.58;;;24.40;;
23555;SDS011;11956;53.184;8.578;2023-02-14T03:50:26;61.08;;;25.55;;
23555;SDS011;11956;53.184;8.578;2023-02-14T03:53:32;67.60;;;26.73;;
23555;SDS011;11956;53.184;8.578;2023-02-14T03:56:36;69.55;;;26.50;;
23555;SDS011;11956;53.184;8.578;2023-02-14T03:59:48;59.03;;;25.10;;
23555;SDS011;11956;53.184;8.578;2023-02-14T04:02:57;61.15;;;25.02;;
23555;SDS011;11956;53.184;8.578;2023-02-14T04:06:05;69.30;;;26.83;;
23555;SDS011;11956;53.184;8.578;2023-02-14T04:09:06;70.03;;;26.70;;
23555;SDS011;11956;53.184;8.578;2023-02-14T04:12:07;58.00;;;25.30;;
23555;SDS011;11956;53.184;8.578;2023-02-14T04:15:08;56.45;;;25.30;;
23555;SDS011;11956;53.184;8.578;2023-02-14T04:18:10;55.38;;;23.25;;
23555;SDS011;11956;53.184;8.578;2023-02-14T04:21:30;48.78;;;22.50;;
23555;SDS011;11956;53.184;8.578;2023-02-14T04:24:31;56.60;;;24.85;;
23555;SDS011;11956;53.184;8.578;2023-02-14T04:27:31;48.90;;;22.05;;
23555;SDS011;11956;53.184;8.578;2023-02-14T04:30:32;52.45;;;22.40;;
23555;SDS011;11956;53.184;8.578;2023-02-14T04:33:33;54.35;;;23.25;;
23555;SDS011;11956;53.184;8.578;2023-02-14T04:36:34;57.95;;;23.83;;
23555;SDS011;11956;53.184;8.578;2023-02-14T04:39:35;61.90;;;24.70;;
23555;SDS011;11956;53.184;8.578;2023-02-14T04:42:36;52.47;;;21.55;;
23555;SDS011;11956;53.184;8.578;2023-02-14T04:45:37;48.67;;;21.85;;
23555;SDS011;11956;53.184;8.578;2023-02-14T04:48:38;52.53;;;22.73;;
23555;SDS011;11956;53.184;8.578;2023-02-14T04:51:39;44.03;;;21.05;;
23555;SDS011;11956;53.184;8.578;2023-02-14T04:54:40;55.05;;;23.48;;
23555;SDS011;11956;53.184;8.578;2023-02-14T04:57:41;55.28;;;22.55;;
23555;SDS011;11956;53.184;8.578;2023-02-14T05:00:41;59.63;;;23.40;;
23555;SDS011;11956;53.184;8.578;2023-02-14T05:03:42;58.10;;;23.42;;
23555;SDS011;11956;53.184;8.578;2023-02-14T05:06:43;59.38;;;23.88;;
23555;SDS011;11956;53.184;8.578;2023-02-14T05:09:44;53.60;;;22.85;;
23555;SDS011;11956;53.184;8.578;2023-02-14T05:12:45;53.78;;;22.70;;
23555;SDS011;11956;53.184;8.578;2023-02-14T05:15:46;58.20;;;24.05;;
23555;SDS011;11956;53.184;8.578;2023-02-14T05:18:47;49.47;;;22.45;;
23555;SDS011;11956;53.184;8.578;2023-02-14T05:21:47;48.47;;;22.38;;
23555;SDS011;11956;53.184;8.578;2023-02-14T05:24:48;60.15;;;23.45;;
23555;SDS011;11956;53.184;8.578;2023-02-14T05:27:49;53.15;;;23.25;;
23555;SDS011;11956;53.184;8.578;2023-02-14T05:30:50;59.00;;;24.40;;
23555;SDS011;11956;53.184;8.578;2023-02-14T05:33:51;55.75;;;23.05;;
23555;SDS011;11956;53.184;8.578;2023-02-14T05:36:52;54.28;;;22.83;;
23555;SDS011;11956;53.184;8.578;2023-02-14T05:39:54;52.53;;;22.23;;
23555;SDS011;11956;53.184;8.578;2023-02-14T05:42:54;52.28;;;24.05;;
23555;SDS011;11956;53.184;8.578;2023-02-14T05:45:56;58.00;;;23.95;;
23555;SDS011;11956;53.184;8.578;2023-02-14T05:48:57;58.17;;;24.58;;
23555;SDS011;11956;53.184;8.578;2023-02-14T05:51:59;57.63;;;24.98;;
23555;SDS011;11956;53.184;8.578;2023-02-14T05:55:00;53.25;;;23.98;;
23555;SDS011;11956;53.184;8.578;2023-02-14T05:58:01;56.75;;;24.20;;
23555;SDS011;11956;53.184;8.578;2023-02-14T06:01:03;53.08;;;24.08;;
23555;SDS011;11956;53.184;8.578;2023-02-14T06:04:04;56.42;;;24.60;;
23555;SDS011;11956;53.184;8.578;2023-02-14T06:07:05;56.88;;;24.02;;
23555;SDS011;11956;53.184;8.578;2023-02-14T06:10:06;58.30;;;24.63;;
23555;SDS011;11956;53.184;8.578;2023-02-14T06:13:08;51.90;;;23.35;;
23555;SDS011;11956;53.184;8.578;2023-02-14T06:16:09;59.15;;;24.75;;
23555;SDS011;11956;53.184;8.578;2023-02-14T06:19:10;54.05;;;23.58;;
23555;SDS011;11956;53.184;8.578;2023-02-14T06:22:11;58.83;;;25.50;;
23555;SDS011;11956;53.184;8.578;2023-02-14T06:25:12;68.35;;;29.48;;
23555;SDS011;11956;53.184;8.578;2023-02-14T06:28:13;59.10;;;26.05;;
23555;SDS011;11956;53.184;8.578;2023-02-14T06:31:15;57.55;;;25.10;;
23555;SDS011;11956;53.184;8.578;2023-02-14T06:34:16;75.50;;;29.30;;
23555;SDS011;11956;53.184;8.578;2023-02-14T06:37:17;64.00;;;26.52;;
23555;SDS011;11956;53.184;8.578;2023-02-14T06:40:19;86.13;;;34.67;;
23555;SDS011;11956;53.184;8.578;2023-02-14T06:43:20;61.25;;;25.52;;
23555;SDS011;11956;53.184;8.578;2023-02-14T06:46:21;89.47;;;35.08;;
23555;SDS011;11956;53.184;8.578;2023-02-14T06:49:22;85.15;;;32.15;;
23555;SDS011;11956;53.184;8.578;2023-02-14T06:52:23;65.93;;;30.27;;
23555;SDS011;11956;53.184;8.578;2023-02-14T06:55:24;78.68;;;32.33;;
23555;SDS011;11956;53.184;8.578;2023-02-14T06:58:25;84.43;;;36.20;;
23555;SDS011;11956;53.184;8.578;2023-02-14T07:01:26;68.50;;;29.20;;
23555;SDS011;11956;53.184;8.578;2023-02-14T07:04:27;92.20;;;38.22;;
23555;SDS011;11956;53.184;8.578;2023-02-14T07:07:28;64.30;;;29.08;;
23555;SDS011;11956;53.184;8.578;2023-02-14T07:10:29;66.50;;;29.15;;
23555;SDS011;11956;53.184;8.578;2023-02-14T07:13:30;63.40;;;27.63;;
23555;SDS011;11956;53.184;8.578;2023-02-14T07:16:31;69.55;;;29.17;;
23555;SDS011;11956;53.184;8.578;2023-02-14T07:19:32;86.38;;;36.92;;
23555;SDS011;11956;53.184;8.578;2023-02-14T07:22:34;93.45;;;38.67;;
23555;SDS011;11956;53.184;8.578;2023-02-14T07:25:36;75.38;;;34.55;;
23555;SDS011;11956;53.184;8.578;2023-02-14T07:28:37;70.40;;;33.90;;
23555;SDS011;11956;53.184;8.578;2023-02-14T07:31:38;62.55;;;29.75;;
23555;SDS011;11956;53.184;8.578;2023-02-14T07:34:39;61.65;;;30.58;;
23555;SDS011;11956;53.184;8.578;2023-02-14T07:37:40;43.13;;;23.65;;
23555;SDS011;11956;53.184;8.578;2023-02-14T07:40:41;53.42;;;28.23;;
23555;SDS011;11956;53.184;8.578;2023-02-14T07:43:42;49.80;;;28.77;;
23555;SDS011;11956;53.184;8.578;2023-02-14T07:46:43;43.70;;;26.85;;
23555;SDS011;11956;53.184;8.578;2023-02-14T07:49:43;41.90;;;25.98;;
23555;SDS011;11956;53.184;8.578;2023-02-14T07:52:44;39.63;;;24.50;;
23555;SDS011;11956;53.184;8.578;2023-02-14T07:55:49;33.67;;;22.33;;
23555;SDS011;11956;53.184;8.578;2023-02-14T07:58:51;35.05;;;21.80;;
23555;SDS011;11956;53.184;8.578;2023-02-14T08:01:52;33.22;;;20.98;;
23555;SDS011;11956;53.184;8.578;2023-02-14T08:04:53;31.23;;;20.45;;
23555;SDS011;11956;53.184;8.578;2023-02-14T08:07:54;29.75;;;19.77;;
23555;SDS011;11956;53.184;8.578;2023-02-14T08:10:55;30.27;;;19.90;;
23555;SDS011;11956;53.184;8.578;2023-02-14T08:13:56;32.10;;;20.42;;
23555;SDS011;11956;53.184;8.578;2023-02-14T08:16:57;29.98;;;19.65;;
23555;SDS011;11956;53.184;8.578;2023-02-14T08:19:58;28.13;;;18.60;;
23555;SDS011;11956;53.184;8.578;2023-02-14T08:22:59;29.05;;;19.23;;
23555;SDS011;11956;53.184;8.578;2023-02-14T08:26:00;29.42;;;19.05;;
23555;SDS011;11956;53.184;8.578;2023-02-14T08:29:01;34.22;;;20.17;;
23555;SDS011;11956;53.184;8.578;2023-02-14T08:32:02;33.60;;;21.25;;
23555;SDS011;11956;53.184;8.578;2023-02-14T08:35:02;31.65;;;19.35;;
23555;SDS011;11956;53.184;8.578;2023-02-14T08:38:04;29.73;;;18.65;;
23555;SDS011;11956;53.184;8.578;2023-02-14T08:41:06;27.95;;;17.80;;
23555;SDS011;11956;53.184;8.578;2023-02-14T08:44:07;29.08;;;18.15;;
23555;SDS011;11956;53.184;8.578;2023-02-14T08:47:09;25.58;;;17.45;;
23555;SDS011;11956;53.184;8.578;2023-02-14T08:50:11;26.60;;;17.23;;
23555;SDS011;11956;53.184;8.578;2023-02-14T08:53:15;26.58;;;17.55;;
23555;SDS011;11956;53.184;8.578;2023-02-14T08:56:16;26.15;;;17.67;;
23555;SDS011;11956;53.184;8.578;2023-02-14T08:59:18;28.63;;;19.40;;
23555;SDS011;11956;53.184;8.578;2023-02-14T09:02:18;26.52;;;17.67;;
23555;SDS011;11956;53.184;8.578;2023-02-14T09:05:20;26.70;;;18.40;;
23555;SDS011;11956;53.184;8.578;2023-02-14T09:08:22;26.10;;;18.08;;
23555;SDS011;11956;53.184;8.578;2023-02-14T09:11:24;27.63;;;17.52;;
23555;SDS011;11956;53.184;8.578;2023-02-14T09:14:25;28.90;;;17.98;;
23555;SDS011;11956;53.184;8.578;2023-02-14T09:17:27;27.50;;;17.80;;
23555;SDS011;11956;53.184;8.578;2023-02-14T09:20:29;27.27;;;18.48;;
23555;SDS011;11956;53.184;8.578;2023-02-14T09:23:30;33.60;;;19.88;;
23555;SDS011;11956;53.184;8.578;2023-02-14T09:26:32;30.45;;;17.52;;
23555;SDS011;11956;53.184;8.578;2023-02-14T09:29:36;27.45;;;16.92;;
23555;SDS011;11956;53.184;8.578;2023-02-14T09:32:37;36.80;;;19.90;;
23555;SDS011;11956;53.184;8.578;2023-02-14T09:35:38;28.33;;;18.30;;
23555;SDS011;11956;53.184;8.578;2023-02-14T09:38:39;35.97;;;19.25;;
23555;SDS011;11956;53.184;8.578;2023-02-14T09:45:26;29.60;;;19.45;;
23555;SDS011;11956;53.184;8.578;2023-02-14T09:48:34;30.48;;;20.23;;
23555;SDS011;11956;53.184;8.578;2023-02-14T09:51:42;30.33;;;20.60;;
23555;SDS011;11956;53.184;8.578;2023-02-14T09:54:48;25.90;;;17.40;;
23555;SDS011;11956;53.184;8.578;2023-02-14T09:58:08;26.67;;;17.58;;
23555;SDS011;11956;53.184;8.578;2023-02-14T10:01:22;23.17;;;16.48;;
23555;SDS011;11956;53.184;8.578;2023-02-14T10:11:36;20.95;;;15.57;;
23555;SDS011;11956;53.184;8.578;2023-02-14T10:14:37;22.77;;;16.88;;
23555;SDS011;11956;53.184;8.578;2023-02-14T10:17:41;21.27;;;16.20;;
23555;SDS011;11956;53.184;8.578;2023-02-14T10:20:49;22.67;;;16.67;;
23555;SDS011;11956;53.184;8.578;2023-02-14T10:23:59;22.23;;;17.05;;
23555;SDS011;11956;53.184;8.578;2023-02-14T10:27:13;21.17;;;15.82;;
23555;SDS011;11956;53.184;8.578;2023-02-14T10:30:43;20.52;;;16.35;;
23555;SDS011;11956;53.184;8.578;2023-02-14T10:34:03;19.90;;;15.30;;
23555;SDS011;11956;53.184;8.578;2023-02-14T10:37:27;24.15;;;17.02;;
23555;SDS011;11956;53.184;8.578;2023-02-14T10:40:54;18.27;;;14.03;;
23555;SDS011;11956;53.184;8.578;2023-02-14T10:54:35;23.05;;;17.40;;
23555;SDS011;11956;53.184;8.578;2023-02-14T10:57:40;24.05;;;17.38;;
23555;SDS011;11956;53.184;8.578;2023-02-14T11:01:32;25.42;;;18.73;;
23555;SDS011;11956;53.184;8.578;2023-02-14T11:04:16;24.95;;;17.63;;
23555;SDS011;11956;53.184;8.578;2023-02-14T11:07:21;27.58;;;18.77;;
23555;SDS011;11956;53.184;8.578;2023-02-14T11:10:23;25.98;;;17.95;;
23555;SDS011;11956;53.184;8.578;2023-02-14T11:16:37;26.48;;;18.45;;
23555;SDS011;11956;53.184;8.578;2023-02-14T11:19:39;28.08;;;18.70;;
23555;SDS011;11956;53.184;8.578;2023-02-14T11:22:39;27.60;;;19.42;;
23555;SDS011;11956;53.184;8.578;2023-02-14T11:25:40;28.33;;;19.25;;
23555;SDS011;11956;53.184;8.578;2023-02-14T11:28:59;30.00;;;18.52;;
23555;SDS011;11956;53.184;8.578;2023-02-14T11:32:07;27.83;;;18.73;;
23555;SDS011;11956;53.184;8.578;2023-02-14T11:35:17;28.42;;;19.33;;
23555;SDS011;11956;53.184;8.578;2023-02-14T11:38:30;32.78;;;20.75;;
23555;SDS011;11956;53.184;8.578;2023-02-14T11:41:48;32.50;;;20.83;;
23555;SDS011;11956;53.184;8.578;2023-02-14T11:44:58;31.03;;;19.73;;
23555;SDS011;11956;53.184;8.578;2023-02-14T11:51:25;30.77;;;20.45;;
23555;SDS011;11956;53.184;8.578;2023-02-14T11:54:34;31.45;;;20.58;;
23555;SDS011;11956;53.184;8.578;2023-02-14T11:57:38;32.22;;;20.55;;
23555;SDS011;11956;53.184;8.578;2023-02-14T12:00:39;32.33;;;20.80;;
23555;SDS011;11956;53.184;8.578;2023-02-14T12:03:44;29.92;;;19.33;;
23555;SDS011;11956;53.184;8.578;2023-02-14T12:06:47;32.10;;;22.23;;
23555;SDS011;11956;53.184;8.578;2023-02-14T12:09:48;30.83;;;20.67;;
23555;SDS011;11956;53.184;8.578;2023-02-14T12:13:34;31.67;;;20.17;;
23555;SDS011;11956;53.184;8.578;2023-02-14T12:16:37;31.85;;;20.60;;
23555;SDS011;11956;53.184;8.578;2023-02-14T12:19:58;27.98;;;19.02;;
23555;SDS011;11956;53.184;8.578;2023-02-14T12:23:29;30.00;;;18.38;;
23555;SDS011;11956;53.184;8.578;2023-02-14T12:27:20;30.70;;;19.10;;
23555;SDS011;11956;53.184;8.578;2023-02-14T12:30:28;29.40;;;18.30;;
23555;SDS011;11956;53.184;8.578;2023-02-14T12:33:33;27.90;;;17.00;;
23555;SDS011;11956;53.184;8.578;2023-02-14T12:36:42;27.30;;;17.33;;
23555;SDS011;11956;53.184;8.578;2023-02-14T12:53:46;20.67;;;13.35;;
23555;SDS011;11956;53.184;8.578;2023-02-14T12:57:53;17.40;;;11.32;;
23555;SDS011;11956;53.184;8.578;2023-02-14T13:00:49;18.40;;;12.18;;
23555;SDS011;11956;53.184;8.578;2023-02-14T13:04:37;13.48;;;8.93;;
23555;SDS011;11956;53.184;8.578;2023-02-14T13:12:11;15.65;;;8.95;;
23555;SDS011;11956;53.184;8.578;2023-02-14T13:23:15;20.58;;;13.20;;
23555;SDS011;11956;53.184;8.578;2023-02-14T13:26:30;23.27;;;14.13;;
23555;SDS011;11956;53.184;8.578;2023-02-14T13:29:46;23.35;;;14.25;;
23555;SDS011;11956;53.184;8.578;2023-02-14T13:33:02;24.13;;;14.93;;
23555;SDS011;11956;53.184;8.578;2023-02-14T13:36:31;25.42;;;15.43;;
23555;SDS011;11956;53.184;8.578;2023-02-14T13:39:37;21.50;;;14.80;;
23555;SDS011;11956;53.184;8.578;2023-02-14T13:42:52;26.35;;;15.68;;
23555;SDS011;11956;53.184;8.578;2023-02-14T13:45:58;24.40;;;15.88;;
23555;SDS011;11956;53.184;8.578;2023-02-14T13:52:47;21.98;;;14.80;;
23555;SDS011;11956;53.184;8.578;2023-02-14T13:55:48;23.83;;;15.10;;
23555;SDS011;11956;53.184;8.578;2023-02-14T13:58:55;22.48;;;14.73;;
23555;SDS011;11956;53.184;8.578;2023-02-14T14:14:34;20.88;;;12.48;;
23555;SDS011;11956;53.184;8.578;2023-02-14T14:17:38;25.08;;;13.35;;
23555;SDS011;11956;53.184;8.578;2023-02-14T14:20:41;18.63;;;13.02;;
23555;SDS011;11956;53.184;8.578;2023-02-14T14:23:45;17.98;;;12.02;;
23555;SDS011;11956;53.184;8.578;2023-02-14T14:27:24;20.67;;;13.07;;
23555;SDS011;11956;53.184;8.578;2023-02-14T14:30:41;22.13;;;13.90;;
23555;SDS011;11956;53.184;8.578;2023-02-14T14:33:43;18.63;;;12.55;;
23555;SDS011;11956;53.184;8.578;2023-02-14T14:36:44;19.23;;;13.07;;
23555;SDS011;11956;53.184;8.578;2023-02-14T14:39:49;23.67;;;14.13;;
23555;SDS011;11956;53.184;8.578;2023-02-14T14:43:44;18.75;;;13.60;;
23555;SDS011;11956;53.184;8.578;2023-02-14T14:46:30;22.08;;;14.82;;
23555;SDS011;11956;53.184;8.578;2023-02-14T14:49:31;18.25;;;13.13;;
23555;SDS011;11956;53.184;8.578;2023-02-14T14:52:34;25.40;;;14.18;;
23555;SDS011;11956;53.184;8.578;2023-02-14T14:55:42;21.08;;;14.23;;
23555;SDS011;11956;53.184;8.578;2023-02-14T14:58:45;23.13;;;14.18;;
23555;SDS011;11956;53.184;8.578;2023-02-14T15:01:48;23.90;;;13.88;;
23555;SDS011;11956;53.184;8.578;2023-02-14T15:04:53;21.23;;;12.63;;
23555;SDS011;11956;53.184;8.578;2023-02-14T15:07:54;21.48;;;13.90;;
23555;SDS011;11956;53.184;8.578;2023-02-14T15:11:04;21.98;;;14.00;;
23555;SDS011;11956;53.184;8.578;2023-02-14T15:14:34;21.48;;;13.88;;
23555;SDS011;11956;53.184;8.578;2023-02-14T15:17:40;19.90;;;13.15;;
23555;SDS011;11956;53.184;8.578;2023-02-14T15:20:46;22.00;;;14.93;;
23555;SDS011;11956;53.184;8.578;2023-02-14T15:23:49;20.25;;;14.32;;
23555;SDS011;11956;53.184;8.578;2023-02-14T15:26:51;25.45;;;15.57;;
23555;SDS011;11956;53.184;8.578;2023-02-14T15:29:58;21.48;;;15.25;;
23555;SDS011;11956;53.184;8.578;2023-02-14T15:33:08;23.73;;;15.07;;
23555;SDS011;11956;53.184;8.578;2023-02-14T15:36:14;23.50;;;15.80;;
23555;SDS011;11956;53.184;8.578;2023-02-14T15:39:19;24.00;;;15.98;;
23555;SDS011;11956;53.184;8.578;2023-02-14T15:42:32;26.25;;;16.60;;
23555;SDS011;11956;53.184;8.578;2023-02-14T15:45:39;22.50;;;15.82;;
23555;SDS011;11956;53.184;8.578;2023-02-14T15:48:41;23.60;;;16.00;;
23555;SDS011;11956;53.184;8.578;2023-02-14T15:51:43;25.08;;;16.15;;
23555;SDS011;11956;53.184;8.578;2023-02-14T15:54:48;23.02;;;16.00;;
23555;SDS011;11956;53.184;8.578;2023-02-14T15:57:52;24.27;;;16.23;;
23555;SDS011;11956;53.184;8.578;2023-02-14T16:01:05;23.25;;;15.48;;
23555;SDS011;11956;53.184;8.578;2023-02-14T16:04:07;23.38;;;15.50;;
23555;SDS011;11956;53.184;8.578;2023-02-14T16:07:27;27.10;;;16.75;;
23555;SDS011;11956;53.184;8.578;2023-02-14T16:10:30;25.13;;;16.23;;
23555;SDS011;11956;53.184;8.578;2023-02-14T16:13:36;22.83;;;14.85;;
23555;SDS011;11956;53.184;8.578;2023-02-14T16:19:59;24.98;;;16.60;;
23555;SDS011;11956;53.184;8.578;2023-02-14T16:27:06;24.17;;;15.68;;
23555;SDS011;11956;53.184;8.578;2023-02-14T16:30:14;25.95;;;17.10;;
23555;SDS011;11956;53.184;8.578;2023-02-14T16:33:18;24.60;;;15.85;;
23555;SDS011;11956;53.184;8.578;2023-02-14T16:39:29;27.98;;;17.50;;
23555;SDS011;11956;53.184;8.578;2023-02-14T16:42:31;25.58;;;16.23;;
23555;SDS011;11956;53.184;8.578;2023-02-14T16:45:32;30.40;;;16.92;;
23555;SDS011;11956;53.184;8.578;2023-02-14T16:48:33;23.83;;;15.73;;
23555;SDS011;11956;53.184;8.578;2023-02-14T16:51:34;27.88;;;16.42;;
23555;SDS011;11956;53.184;8.578;2023-02-14T16:54:36;25.40;;;16.42;;
23555;SDS011;11956;53.184;8.578;2023-02-14T16:57:38;35.40;;;21.10;;
23555;SDS011;11956;53.184;8.578;2023-02-14T17:00:42;28.30;;;17.73;;
23555;SDS011;11956;53.184;8.578;2023-02-14T17:03:43;33.75;;;19.15;;
23555;SDS011;11956;53.184;8.578;2023-02-14T17:06:46;27.58;;;17.92;;
23555;SDS011;11956;53.184;8.578;2023-02-14T17:09:55;33.38;;;18.05;;
23555;SDS011;11956;53.184;8.578;2023-02-14T17:13:05;27.90;;;17.45;;
23555;SDS011;11956;53.184;8.578;2023-02-14T17:16:07;30.13;;;18.13;;
23555;SDS011;11956;53.184;8.578;2023-02-14T17:19:14;33.13;;;20.42;;
23555;SDS011;11956;53.184;8.578;2023-02-14T17:22:15;32.63;;;19.27;;
23555;SDS011;11956;53.184;8.578;2023-02-14T17:25:17;29.77;;;18.40;;
23555;SDS011;11956;53.184;8.578;2023-02-14T17:28:18;30.35;;;18.40;;
23555;SDS011;11956;53.184;8.578;2023-02-14T17:31:19;27.33;;;17.05;;
23555;SDS011;11956;53.184;8.578;2023-02-14T17:34:20;35.63;;;20.45;;
23555;SDS011;11956;53.184;8.578;2023-02-14T17:37:21;31.77;;;18.98;;
23555;SDS011;11956;53.184;8.578;2023-02-14T17:40:22;28.30;;;17.08;;
23555;SDS011;11956;53.184;8.578;2023-02-14T17:43:22;28.75;;;18.33;;
23555;SDS011;11956;53.184;8.578;2023-02-14T17:46:23;31.48;;;18.73;;
23555;SDS011;11956;53.184;8.578;2023-02-14T17:49:25;27.90;;;16.63;;
23555;SDS011;11956;53.184;8.578;2023-02-14T17:52:26;27.60;;;17.15;;
23555;SDS011;11956;53.184;8.578;2023-02-14T17:55:28;26.92;;;17.00;;
23555;SDS011;11956;53.184;8.578;2023-02-14T17:58:29;32.00;;;18.70;;
23555;SDS011;11956;53.184;8.578;2023-02-14T18:01:30;31.95;;;19.25;;
23555;SDS011;11956;53.184;8.578;2023-02-14T18:04:33;30.63;;;19.38;;
23555;SDS011;11956;53.184;8.578;2023-02-14T18:07:36;37.27;;;20.37;;
23555;SDS011;11956;53.184;8.578;2023-02-14T18:10:37;29.98;;;19.67;;
23555;SDS011;11956;53.184;8.578;2023-02-14T18:13:38;32.42;;;18.73;;
23555;SDS011;11956;53.184;8.578;2023-02-14T18:16:39;30.73;;;18.05;;
23555;SDS011;11956;53.184;8.578;2023-02-14T18:19:41;29.10;;;18.15;;
23555;SDS011;11956;53.184;8.578;2023-02-14T18:22:42;31.17;;;19.13;;
23555;SDS011;11956;53.184;8.578;2023-02-14T18:25:47;32.42;;;18.38;;
23555;SDS011;11956;53.184;8.578;2023-02-14T18:28:54;32.10;;;18.08;;
23555;SDS011;11956;53.184;8.578;2023-02-14T18:31:56;30.77;;;18.23;;
23555;SDS011;11956;53.184;8.578;2023-02-14T18:34:58;33.67;;;19.27;;
23555;SDS011;11956;53.184;8.578;2023-02-14T18:37:59;39.25;;;22.75;;
23555;SDS011;11956;53.184;8.578;2023-02-14T18:41:01;36.15;;;21.85;;
23555;SDS011;11956;53.184;8.578;2023-02-14T18:44:04;37.95;;;21.20;;
23555;SDS011;11956;53.184;8.578;2023-02-14T18:47:06;33.75;;;17.90;;
23555;SDS011;11956;53.184;8.578;2023-02-14T18:50:07;32.25;;;19.63;;
23555;SDS011;11956;53.184;8.578;2023-02-14T18:53:08;31.52;;;18.95;;
23555;SDS011;11956;53.184;8.578;2023-02-14T18:56:16;33.72;;;19.92;;
23555;SDS011;11956;53.184;8.578;2023-02-14T18:59:24;31.58;;;18.52;;
23555;SDS011;11956;53.184;8.578;2023-02-14T19:02:25;31.88;;;18.38;;
23555;SDS011;11956;53.184;8.578;2023-02-14T19:05:26;34.22;;;20.80;;
23555;SDS011;11956;53.184;8.578;2023-02-14T19:08:34;30.85;;;18.45;;
23555;SDS011;11956;53.184;8.578;2023-02-14T19:11:36;32.50;;;19.05;;
23555;SDS011;11956;53.184;8.578;2023-02-14T19:14:38;29.67;;;17.92;;
23555;SDS011;11956;53.184;8.578;2023-02-14T19:17:39;33.40;;;19.30;;
23555;SDS011;11956;53.184;8.578;2023-02-14T19:20:40;33.05;;;19.20;;
23555;SDS011;11956;53.184;8.578;2023-02-14T19:23:41;37.83;;;22.27;;
23555;SDS011;11956;53.184;8.578;2023-02-14T19:26:43;31.88;;;19.48;;
23555;SDS011;11956;53.184;8.578;2023-02-14T19:29:45;34.33;;;19.98;;
23555;SDS011;11956;53.184;8.578;2023-02-14T19:32:46;35.25;;;20.50;;
23555;SDS011;11956;53.184;8.578;2023-02-14T19:35:47;38.60;;;19.92;;
23555;SDS011;11956;53.184;8.578;2023-02-14T19:38:58;32.50;;;20.05;;
23555;SDS011;11956;53.184;8.578;2023-02-14T19:41:58;37.65;;;20.58;;
23555;SDS011;11956;53.184;8.578;2023-02-14T19:45:00;32.97;;;19.90;;
23555;SDS011;11956;53.184;8.578;2023-02-14T19:48:01;35.13;;;19.70;;
23555;SDS011;11956;53.184;8.578;2023-02-14T19:51:02;30.77;;;18.20;;
23555;SDS011;11956;53.184;8.578;2023-02-14T19:54:04;35.63;;;19.90;;
23555;SDS011;11956;53.184;8.578;2023-02-14T19:57:12;33.28;;;18.70;;
23555;SDS011;11956;53.184;8.578;2023-02-14T20:00:13;34.67;;;20.63;;
23555;SDS011;11956;53.184;8.578;2023-02-14T20:03:15;34.67;;;19.77;;
23555;SDS011;11956;53.184;8.578;2023-02-14T20:06:16;33.55;;;20.30;;
23555;SDS011;11956;53.184;8.578;2023-02-14T20:09:17;35.25;;;19.92;;
23555;SDS011;11956;53.184;8.578;2023-02-14T20:12:20;34.95;;;20.08;;
23555;SDS011;11956;53.184;8.578;2023-02-14T20:15:21;41.55;;;21.60;;
23555;SDS011;11956;53.184;8.578;2023-02-14T20:18:25;34.38;;;20.55;;
23555;SDS011;11956;53.184;8.578;2023-02-14T20:21:25;34.80;;;19.40;;
23555;SDS011;11956;53.184;8.578;2023-02-14T20:24:28;34.47;;;19.00;;
23555;SDS011;11956;53.184;8.578;2023-02-14T20:27:31;37.30;;;20.88;;